Time;durP1;ratioP1;P1;durP2;ratioP2;P2;SDS_P1;SDS_P2;PMS_P1;PMS_P2;Temp;Humidity;BMP_temperature;BMP_pressure;BME280_temperature;BME280_humidity;BME280_pressure;Samples;Min_cycle;Max_cycle;Signal;HPM_P1;HPM_P2
2023/01/28 00:02:07;;;;;;;37.40;17.40;;;-1.60;63.90;;;;;;4647948;30;115590;-79
2023/01/28 00:04:34;;;;;;;36.28;16.13;;;-1.50;64.00;;;;;;4648567;30;114918;-78
2023/01/28 00:07:01;;;;;;;31.60;14.68;;;-1.60;64.00;;;;;;4649416;30;114823;-80
2023/01/28 00:09:28;;;;;;;32.80;13.80;;;-1.60;63.80;;;;;;4650647;30;115391;-78
2023/01/28 00:12:03;;;;;;;35.28;16.33;;;-1.60;63.80;;;;;;4649686;30;116317;-79
2023/01/28 00:14:30;;;;;;;31.73;14.45;;;-1.60;64.00;;;;;;4647857;30;116080;-78
2023/01/28 00:16:58;;;;;;;31.83;14.75;;;-1.50;63.90;;;;;;4648352;30;114637;-78
2023/01/28 00:19:25;;;;;;;30.38;14.90;;;-1.50;63.70;;;;;;4650924;30;115812;-79
2023/01/28 00:21:52;;;;;;;33.55;15.57;;;-1.60;63.70;;;;;;4634123;30;115166;-79
2023/01/28 00:24:19;;;;;;;34.70;16.17;;;-1.60;63.70;;;;;;4648565;30;116233;-78
2023/01/28 00:26:47;;;;;;;37.58;16.83;;;-1.60;63.60;;;;;;4648960;30;114875;-79
2023/01/28 00:29:14;;;;;;;34.17;16.08;;;-1.60;63.70;;;;;;4650608;30;115678;-79
2023/01/28 00:31:43;;;;;;;37.20;16.88;;;-1.60;63.80;;;;;;4649827;30;115890;-79
2023/01/28 00:34:10;;;;;;;32.03;15.00;;;-1.60;63.90;;;;;;4651941;30;116618;-79
2023/01/28 00:36:41;;;;;;;32.45;15.35;;;-1.50;63.90;;;;;;4653293;30;114751;-78
2023/01/28 00:39:12;;;;;;;28.00;14.30;;;-1.50;63.70;;;;;;4650180;30;114776;-79
2023/01/28 00:41:41;;;;;;;31.15;14.75;;;-1.50;63.70;;;;;;4648961;30;116158;-78
2023/01/28 00:44:08;;;;;;;30.80;14.05;;;-1.50;63.50;;;;;;4649239;30;115120;-78
2023/01/28 00:46:36;;;;;;;28.42;12.05;;;-1.50;63.40;;;;;;4621433;30;114728;-79
2023/01/28 00:49:03;;;;;;;27.40;13.05;;;-1.60;63.30;;;;;;4620779;30;114558;-77
2023/01/28 00:51:30;;;;;;;28.85;12.52;;;-1.60;63.40;;;;;;4636742;30;116475;-78
2023/01/28 00:53:57;;;;;;;29.10;13.77;;;-1.60;63.40;;;;;;4648711;30;114734;-78
2023/01/28 00:56:26;;;;;;;29.27;14.20;;;-1.60;63.40;;;;;;4664054;30;115954;-78
2023/01/28 00:58:53;;;;;;;30.27;13.40;;;-1.60;63.40;;;;;;4634883;30;115066;-78
2023/01/28 01:01:25;;;;;;;25.95;12.23;;;-1.70;63.50;;;;;;4649652;30;116068;-78
2023/01/28 01:04:01;;;;;;;21.40;10.90;;;-1.60;63.40;;;;;;4634195;30;114688;-78
2023/01/28 01:06:36;;;;;;;28.08;13.85;;;-1.70;63.40;;;;;;4621954;30;114838;-78
2023/01/28 01:09:06;;;;;;;22.45;11.40;;;-1.70;63.50;;;;;;4635134;30;115425;-78
2023/01/28 01:11:34;;;;;;;25.42;13.23;;;-1.70;63.50;;;;;;4633934;30;115478;-78
2023/01/28 01:14:04;;;;;;;30.17;13.70;;;-1.70;63.40;;;;;;4633878;30;116660;-78
2023/01/28 01:16:32;;;;;;;21.52;12.45;;;-1.70;63.40;;;;;;4634527;30;119968;-78
2023/01/28 01:18:59;;;;;;;27.98;13.57;;;-1.70;63.40;;;;;;4635012;30;114464;-78
2023/01/28 01:21:28;;;;;;;31.00;13.55;;;-1.80;63.40;;;;;;4632644;30;115790;-78
2023/01/28 01:23:55;;;;;;;28.38;13.45;;;-1.80;63.70;;;;;;4634028;30;114873;-78
2023/01/28 01:26:22;;;;;;;31.70;14.13;;;-1.70;63.60;;;;;;4633915;30;114794;-78
2023/01/28 01:28:51;;;;;;;31.20;14.23;;;-1.70;63.70;;;;;;4649255;30;114511;-78
2023/01/28 01:31:19;;;;;;;25.10;12.75;;;-1.70;63.50;;;;;;4649418;30;115310;-78
2023/01/28 01:33:48;;;;;;;28.02;13.80;;;-1.70;63.60;;;;;;4630611;30;115713;-78
2023/01/28 01:36:16;;;;;;;29.20;13.57;;;-1.70;63.60;;;;;;4631337;30;114845;-78
2023/01/28 01:38:43;;;;;;;25.80;12.65;;;-1.70;63.60;;;;;;4645871;30;114577;-78
2023/01/28 01:41:28;;;;;;;28.17;13.68;;;-1.70;63.50;;;;;;4630069;30;116480;-78
2023/01/28 01:43:58;;;;;;;26.33;13.30;;;-1.70;63.50;;;;;;4631990;30;115107;-78
2023/01/28 01:46:42;;;;;;;21.90;11.30;;;-1.80;63.50;;;;;;4646008;30;114558;-78
2023/01/28 01:49:26;;;;;;;30.20;13.23;;;-1.80;63.50;;;;;;4645899;30;114832;-78
2023/01/28 01:52:01;;;;;;;31.35;13.43;;;-1.80;63.60;;;;;;4630200;30;118604;-78
2023/01/28 01:54:29;;;;;;;26.20;11.40;;;-1.90;63.60;;;;;;4616891;30;117516;-78
2023/01/28 01:56:56;;;;;;;28.45;13.32;;;-1.90;63.60;;;;;;4617387;30;114656;-78
2023/01/28 01:59:27;;;;;;;25.77;12.38;;;-1.90;63.80;;;;;;4646279;30;114938;-79
2023/01/28 02:01:54;;;;;;;22.95;10.50;;;-1.90;63.90;;;;;;4630502;30;115926;-78
2023/01/28 02:04:27;;;;;;;27.83;12.63;;;-1.90;63.90;;;;;;4644857;30;114631;-79
2023/01/28 02:06:55;;;;;;;26.70;12.05;;;-1.90;63.90;;;;;;4616974;30;114560;-78
2023/01/28 02:09:34;;;;;;;27.50;13.05;;;-1.90;64.00;;;;;;4645796;30;114781;-78
2023/01/28 02:12:14;;;;;;;26.02;12.40;;;-1.80;64.10;;;;;;4630694;30;116550;-78
2023/01/28 02:14:45;;;;;;;30.63;13.48;;;-1.90;64.00;;;;;;4616646;30;115263;-79
2023/01/28 02:17:14;;;;;;;25.95;11.80;;;-1.90;64.10;;;;;;4631633;30;114652;-78
2023/01/28 02:19:53;;;;;;;27.50;12.38;;;-1.90;64.20;;;;;;4631386;30;114688;-78
2023/01/28 02:23:03;;;;;;;26.98;12.65;;;-1.90;64.10;;;;;;4630146;30;115426;-78
2023/01/28 02:26:17;;;;;;;31.70;14.93;;;-1.90;64.20;;;;;;4642918;30;114795;-78
2023/01/28 02:28:54;;;;;;;30.33;13.27;;;-1.90;64.20;;;;;;4628033;30;114715;-79
2023/01/28 02:31:39;;;;;;;26.27;12.63;;;-1.90;64.20;;;;;;4645851;30;114802;-78
2023/01/28 02:34:18;;;;;;;29.75;13.40;;;-1.90;64.20;;;;;;4643141;30;115689;-79
2023/01/28 02:36:52;;;;;;;30.25;14.07;;;-1.90;64.30;;;;;;4644388;30;116113;-79
2023/01/28 02:39:26;;;;;;;29.30;13.55;;;-1.90;64.30;;;;;;4647092;30;114610;-78
2023/01/28 02:42:05;;;;;;;28.60;11.45;;;-1.90;64.40;;;;;;4647661;30;114926;-78
2023/01/28 02:44:33;;;;;;;30.63;15.18;;;-1.90;64.40;;;;;;4618428;30;118095;-79
2023/01/28 02:49:52;;;;;;;29.48;13.90;;;-1.90;64.60;;;;;;4647555;30;114626;-78
2023/01/28 02:55:49;;;;;;;34.93;14.17;;;-1.90;64.40;;;;;;4632683;30;115186;-78
2023/01/28 02:58:54;;;;;;;31.70;15.80;;;-1.90;64.50;;;;;;4647090;30;114708;-78
2023/01/28 03:01:48;;;;;;;32.13;13.23;;;-1.90;64.60;;;;;;4634642;30;114897;-79
2023/01/28 03:04:28;;;;;;;33.17;15.13;;;-1.90;64.60;;;;;;4617932;30;114752;-78
2023/01/28 03:06:59;;;;;;;27.27;12.13;;;-2.00;64.60;;;;;;4632397;30;115784;-78
2023/01/28 03:09:26;;;;;;;35.17;14.63;;;-1.90;64.60;;;;;;4633578;30;114730;-78
2023/01/28 03:39:01;;;;;;;33.08;15.65;;;-1.90;65.20;;;;;;4636200;30;115279;-79
2023/01/28 03:41:29;;;;;;;36.83;17.00;;;-1.90;65.20;;;;;;4647373;30;115221;-79
2023/01/28 03:46:47;;;;;;;41.67;16.35;;;-1.90;65.10;;;;;;4648056;30;114636;-78
2023/01/28 03:49:15;;;;;;;38.20;14.98;;;-1.90;65.30;;;;;;4647569;30;114625;-78
2023/01/28 03:51:45;;;;;;;31.23;14.73;;;-1.90;65.40;;;;;;4646776;30;115136;-78
2023/01/28 03:54:12;;;;;;;34.58;16.75;;;-1.80;65.30;;;;;;4646997;30;114662;-79
2023/01/28 03:56:40;;;;;;;34.03;16.25;;;-1.90;65.20;;;;;;4634235;30;114803;-78
2023/01/28 03:59:07;;;;;;;30.02;13.13;;;-1.90;65.30;;;;;;4633309;30;114622;-78
2023/01/28 04:01:35;;;;;;;34.00;15.32;;;-1.80;65.30;;;;;;4646573;30;115936;-78
2023/01/28 04:04:03;;;;;;;36.50;16.65;;;-1.80;65.30;;;;;;4646523;30;114786;-79
2023/01/28 04:06:30;;;;;;;33.85;16.00;;;-1.90;65.40;;;;;;4633386;30;114519;-78
2023/01/28 04:09:04;;;;;;;28.13;14.57;;;-1.80;65.40;;;;;;4634657;30;115179;-78
2023/01/28 04:11:58;;;;;;;31.63;13.85;;;-1.90;65.50;;;;;;4641826;30;115187;-79
2023/01/28 04:14:30;;;;;;;30.80;13.68;;;-1.90;65.50;;;;;;4632912;30;114922;-79
2023/01/28 04:17:09;;;;;;;38.10;15.93;;;-1.80;65.60;;;;;;4633041;30;114882;-79
2023/01/28 04:19:37;;;;;;;33.10;15.00;;;-1.90;65.70;;;;;;4619595;30;114445;-78
2023/01/28 04:22:07;;;;;;;31.25;14.45;;;-1.90;65.70;;;;;;4631976;30;115705;-78
2023/01/28 04:24:34;;;;;;;35.42;16.02;;;-1.80;65.70;;;;;;4632129;30;114780;-79
2023/01/28 04:27:02;;;;;;;38.10;17.75;;;-1.80;65.80;;;;;;4647727;30;114990;-78
2023/01/28 04:29:30;;;;;;;36.53;15.52;;;-1.70;65.90;;;;;;4633455;30;114792;-79
2023/01/28 04:32:06;;;;;;;37.17;15.65;;;-1.80;65.90;;;;;;4654364;30;115199;-79
2023/01/28 04:35:00;;;;;;;35.20;16.23;;;-1.70;66.00;;;;;;4660805;30;115796;-79
2023/01/28 04:37:44;;;;;;;39.20;16.65;;;-1.60;65.90;;;;;;4647841;30;114536;-78
2023/01/28 04:40:28;;;;;;;38.00;16.27;;;-1.60;65.90;;;;;;4662072;30;114807;-79
2023/01/28 04:43:00;;;;;;;35.97;14.80;;;-1.60;65.90;;;;;;4661852;30;115020;-79
2023/01/28 04:45:49;;;;;;;36.63;16.90;;;-1.60;66.00;;;;;;4646972;30;114805;-78
2023/01/28 04:48:30;;;;;;;40.45;16.00;;;-1.60;65.90;;;;;;4662763;30;114433;-79
2023/01/28 04:51:16;;;;;;;31.35;14.88;;;-1.70;66.00;;;;;;4659219;30;115863;-78
2023/01/28 04:54:05;;;;;;;34.63;16.42;;;-1.60;66.00;;;;;;4643922;30;115150;-79
2023/01/28 04:56:34;;;;;;;39.30;17.02;;;-1.60;66.10;;;;;;4657147;30;115132;-80
2023/01/28 04:59:02;;;;;;;35.85;16.35;;;-1.60;66.00;;;;;;4658186;30;114627;-80
2023/01/28 05:01:30;;;;;;;37.42;17.45;;;-1.70;66.00;;;;;;4656402;30;114792;-79
2023/01/28 05:04:04;;;;;;;33.78;15.75;;;-1.60;66.20;;;;;;4640224;30;115387;-80
2023/01/28 05:06:35;;;;;;;35.75;16.35;;;-1.60;66.20;;;;;;4643251;30;114800;-78
2023/01/28 05:09:09;;;;;;;34.55;15.25;;;-1.50;66.20;;;;;;4639256;30;114993;-78
2023/01/28 05:11:36;;;;;;;33.70;16.10;;;-1.50;66.10;;;;;;4649318;30;114628;-78
2023/01/28 05:14:05;;;;;;;32.72;14.88;;;-1.50;66.10;;;;;;4648169;30;115375;-78
2023/01/28 05:16:43;;;;;;;36.63;15.18;;;-1.60;66.10;;;;;;4633846;30;115196;-79
2023/01/28 05:19:11;;;;;;;32.53;15.15;;;-1.60;66.20;;;;;;4650961;30;114654;-79
2023/01/28 05:21:41;;;;;;;33.58;15.60;;;-1.60;66.20;;;;;;4642574;30;114625;-79
2023/01/28 05:24:17;;;;;;;29.63;13.65;;;-1.60;66.10;;;;;;4655602;30;117455;-79
2023/01/28 05:26:44;;;;;;;38.00;15.90;;;-1.60;66.10;;;;;;4654091;30;114716;-80
2023/01/28 05:29:12;;;;;;;34.53;16.73;;;-1.70;66.10;;;;;;4627504;30;114972;-79
2023/01/28 05:31:39;;;;;;;33.92;16.13;;;-1.70;66.20;;;;;;4654885;30;114835;-79
2023/01/28 05:34:07;;;;;;;38.28;16.63;;;-1.70;66.20;;;;;;4647243;30;115827;-79
2023/01/28 05:36:34;;;;;;;35.17;16.48;;;-1.70;66.30;;;;;;4648314;30;116300;-80
2023/01/28 05:39:09;;;;;;;40.03;17.95;;;-1.70;66.20;;;;;;4648637;30;114973;-79
2023/01/28 05:41:37;;;;;;;39.20;15.73;;;-1.80;66.30;;;;;;4649032;30;114595;-79
2023/01/28 05:44:05;;;;;;;35.60;16.30;;;-1.70;66.30;;;;;;4651702;30;115164;-79
2023/01/28 05:46:55;;;;;;;40.35;16.40;;;-1.70;66.40;;;;;;4655654;30;114893;-78
2023/01/28 05:49:45;;;;;;;31.83;14.60;;;-1.70;66.50;;;;;;4660237;30;115013;-78
2023/01/28 05:52:37;;;;;;;38.97;17.42;;;-1.70;66.50;;;;;;4654900;30;115079;-80
2023/01/28 05:55:08;;;;;;;35.03;17.42;;;-1.70;66.50;;;;;;4643462;30;115134;-79
2023/01/28 05:57:36;;;;;;;39.40;18.45;;;-1.70;66.70;;;;;;4656188;30;115012;-78
2023/01/28 06:00:08;;;;;;;35.97;16.30;;;-1.60;66.80;;;;;;4644220;30;114639;-79
2023/01/28 06:02:42;;;;;;;38.97;16.67;;;-1.60;66.70;;;;;;4643945;30;114875;-79
2023/01/28 06:05:12;;;;;;;41.00;17.20;;;-1.60;66.60;;;;;;4657101;30;115578;-79
2023/01/28 06:07:39;;;;;;;37.20;15.52;;;-1.60;66.60;;;;;;4644577;30;116773;-79
2023/01/28 06:10:10;;;;;;;37.15;17.35;;;-1.50;66.70;;;;;;4655094;30;114987;-80
2023/01/28 06:12:38;;;;;;;36.33;17.13;;;-1.60;66.60;;;;;;4656740;30;114545;-78
2023/01/28 06:15:37;;;;;;;34.35;15.73;;;-1.60;66.70;;;;;;4647911;30;115287;-79
2023/01/28 06:18:22;;;;;;;40.05;18.50;;;-1.60;66.70;;;;;;4660155;30;114809;-79
2023/01/28 06:20:50;;;;;;;32.13;16.55;;;-1.60;66.60;;;;;;4645818;30;114722;-79
2023/01/28 06:23:17;;;;;;;36.17;16.80;;;-1.60;66.60;;;;;;4660737;30;114789;-79
2023/01/28 06:25:46;;;;;;;38.97;16.75;;;-1.70;66.60;;;;;;4657229;30;115733;-79
2023/01/28 06:28:15;;;;;;;35.15;17.40;;;-1.70;66.80;;;;;;4658664;30;114782;-79
2023/01/28 06:30:42;;;;;;;29.10;13.82;;;-1.70;66.80;;;;;;4660286;30;114509;-80
2023/01/28 06:33:09;;;;;;;35.47;15.45;;;-1.70;66.80;;;;;;4661038;30;114920;-79
2023/01/28 06:35:36;;;;;;;37.72;14.88;;;-1.80;66.70;;;;;;4661043;30;115201;-78
2023/01/28 06:38:04;;;;;;;36.55;16.13;;;-1.80;66.80;;;;;;4662377;30;114892;-79
2023/01/28 06:40:31;;;;;;;27.65;13.40;;;-1.90;66.90;;;;;;4660303;30;114506;-79
2023/01/28 06:43:00;;;;;;;32.40;14.77;;;-1.80;67.00;;;;;;4665031;30;114676;-79
2023/01/28 06:45:27;;;;;;;36.25;15.63;;;-1.90;67.00;;;;;;4657972;30;115688;-79
2023/01/28 06:47:55;;;;;;;35.80;15.77;;;-1.90;67.10;;;;;;4661109;30;115243;-78
2023/01/28 06:50:22;;;;;;;31.60;14.90;;;-1.90;67.20;;;;;;4658721;30;114479;-78
2023/01/28 06:52:49;;;;;;;38.50;16.75;;;-1.90;67.30;;;;;;4663401;30;114936;-79
2023/01/28 06:55:16;;;;;;;31.75;15.25;;;-1.90;67.30;;;;;;4650490;30;115292;-80
2023/01/28 06:57:46;;;;;;;31.05;14.70;;;-1.90;67.40;;;;;;4653902;30;114727;-78
2023/01/28 07:00:17;;;;;;;35.08;18.02;;;-1.90;67.40;;;;;;4655646;30;114709;-78
2023/01/28 07:02:44;;;;;;;34.10;16.10;;;-1.90;67.40;;;;;;4652061;30;114756;-80
2023/01/28 07:05:12;;;;;;;32.55;15.65;;;-1.90;67.50;;;;;;4650137;30;116656;-79
2023/01/28 07:07:39;;;;;;;40.83;17.38;;;-1.90;67.50;;;;;;4650226;30;114765;-79
2023/01/28 07:10:09;;;;;;;31.55;14.88;;;-1.90;67.70;;;;;;4651740;30;114699;-78
2023/01/28 07:12:37;;;;;;;33.40;14.25;;;-1.90;67.70;;;;;;4652470;30;114646;-78
2023/01/28 07:15:05;;;;;;;36.67;16.33;;;-1.90;67.70;;;;;;4635984;30;115028;-77
2023/01/28 07:17:32;;;;;;;38.03;16.85;;;-1.90;67.70;;;;;;4649475;30;115951;-78
2023/01/28 07:19:59;;;;;;;34.40;15.38;;;-1.90;67.60;;;;;;4651486;30;114856;-78
2023/01/28 07:22:26;;;;;;;31.50;14.63;;;-1.90;67.70;;;;;;4652165;30;114649;-79
2023/01/28 07:24:54;;;;;;;40.50;18.02;;;-1.90;67.80;;;;;;4650208;30;115197;-78
2023/01/28 07:27:21;;;;;;;34.95;17.45;;;-1.80;67.80;;;;;;4650936;30;114649;-78
2023/01/28 07:29:51;;;;;;;34.72;15.48;;;-1.80;67.70;;;;;;4651898;30;115053;-78
2023/01/28 07:32:19;;;;;;;38.22;17.67;;;-1.80;67.70;;;;;;4652191;30;114512;-79
2023/01/28 07:34:46;;;;;;;37.22;17.13;;;-1.90;67.70;;;;;;4658557;30;115578;-79
2023/01/28 07:37:14;;;;;;;39.08;16.13;;;-1.90;67.80;;;;;;4661907;30;115287;-80
2023/01/28 07:39:41;;;;;;;40.55;17.58;;;-1.80;67.70;;;;;;4663235;30;114493;-80
2023/01/28 07:42:08;;;;;;;35.10;14.73;;;-1.80;67.80;;;;;;4660862;30;114766;-78
2023/01/28 07:44:37;;;;;;;33.22;16.48;;;-1.80;67.70;;;;;;4659566;30;118740;-78
2023/01/28 07:47:05;;;;;;;39.22;16.88;;;-1.80;67.70;;;;;;4657336;30;114664;-78
2023/01/28 07:49:38;;;;;;;37.33;18.10;;;-1.80;67.80;;;;;;4647472;30;114656;-78
2023/01/28 07:52:07;;;;;;;38.05;16.38;;;-1.80;67.80;;;;;;4661710;30;114760;-78
2023/01/28 07:54:34;;;;;;;36.90;16.88;;;-1.90;67.80;;;;;;4644032;30;115308;-77
2023/01/28 07:57:10;;;;;;;28.70;13.95;;;-1.90;67.70;;;;;;4643389;30;117694;-79
2023/01/28 07:59:37;;;;;;;35.58;16.45;;;-1.80;67.80;;;;;;4658006;30;115798;-78
2023/01/28 08:02:11;;;;;;;33.58;16.23;;;-1.90;67.70;;;;;;4644494;30;114893;-79
2023/01/28 08:04:39;;;;;;;40.63;19.38;;;-1.80;67.80;;;;;;4659687;30;115212;-79
2023/01/28 08:07:06;;;;;;;38.80;18.83;;;-1.80;67.90;;;;;;4658848;30;114846;-79
2023/01/28 08:09:34;;;;;;;33.95;16.33;;;-1.70;68.00;;;;;;4661464;30;114772;-78
2023/01/28 08:12:02;;;;;;;34.30;16.17;;;-1.70;67.80;;;;;;4652909;30;117034;-78
2023/01/28 08:14:29;;;;;;;31.80;14.77;;;-1.80;67.60;;;;;;4649121;30;116406;-79
2023/01/28 08:16:56;;;;;;;30.65;13.75;;;-1.80;67.70;;;;;;4650363;30;119309;-78
2023/01/28 08:19:24;;;;;;;36.88;16.92;;;-1.80;67.80;;;;;;4651175;30;114699;-79
2023/01/28 08:21:54;;;;;;;35.97;14.82;;;-1.70;67.90;;;;;;4635538;30;115008;-78
2023/01/28 08:24:21;;;;;;;40.20;18.40;;;-1.70;68.00;;;;;;4649036;30;115878;-80
2023/01/28 08:26:50;;;;;;;37.67;17.13;;;-1.60;67.90;;;;;;4650597;30;114877;-80
2023/01/28 08:29:20;;;;;;;36.67;16.92;;;-1.60;67.80;;;;;;4635177;30;114865;-79
2023/01/28 08:31:47;;;;;;;39.72;20.35;;;-1.60;67.60;;;;;;4650313;30;114797;-79
2023/01/28 08:34:15;;;;;;;33.55;16.50;;;-1.60;67.60;;;;;;4648725;30;115091;-77
2023/01/28 08:36:42;;;;;;;44.13;18.85;;;-1.60;67.60;;;;;;4647952;30;115999;-78
2023/01/28 08:39:09;;;;;;;38.60;17.23;;;-1.60;67.80;;;;;;4650335;30;114518;-79
2023/01/28 08:41:37;;;;;;;37.63;17.85;;;-1.60;67.70;;;;;;4649516;30;114429;-79
2023/01/28 08:44:04;;;;;;;35.72;17.45;;;-1.50;67.60;;;;;;4634418;30;115169;-80
2023/01/28 08:46:31;;;;;;;25.65;12.77;;;-1.50;67.60;;;;;;4650356;30;114774;-78
2023/01/28 08:48:58;;;;;;;34.15;17.00;;;-1.50;67.50;;;;;;4649448;30;114617;-80
2023/01/28 08:51:26;;;;;;;36.33;18.73;;;-1.50;67.50;;;;;;4652039;30;114497;-81
2023/01/28 08:53:53;;;;;;;35.97;17.23;;;-1.60;67.50;;;;;;4649804;30;115206;-80
2023/01/28 08:56:20;;;;;;;33.13;15.70;;;-1.50;67.60;;;;;;4648996;30;116067;-80
2023/01/28 08:58:47;;;;;;;38.75;17.45;;;-1.50;67.60;;;;;;4648176;30;115995;-79
2023/01/28 09:01:15;;;;;;;37.92;18.17;;;-1.50;67.60;;;;;;4650234;30;114803;-79
2023/01/28 09:03:42;;;;;;;28.40;14.80;;;-1.40;67.60;;;;;;4649097;30;115954;-79
2023/01/28 09:06:09;;;;;;;33.33;15.75;;;-1.40;67.40;;;;;;4649192;30;114639;-80
2023/01/28 09:08:37;;;;;;;34.47;15.07;;;-1.40;67.20;;;;;;4653049;30;115195;-80
2023/01/28 09:11:04;;;;;;;33.47;16.08;;;-1.40;67.30;;;;;;4635279;30;114668;-79
2023/01/28 09:13:31;;;;;;;36.58;16.27;;;-1.40;67.20;;;;;;4649053;30;115266;-79
2023/01/28 09:15:58;;;;;;;33.88;16.40;;;-1.40;67.20;;;;;;4651541;30;114989;-79
2023/01/28 09:18:26;;;;;;;30.50;15.18;;;-1.40;67.20;;;;;;4651431;30;114651;-79
2023/01/28 09:20:53;;;;;;;36.30;15.65;;;-1.40;67.20;;;;;;4649214;30;114456;-79
2023/01/28 09:23:20;;;;;;;36.67;16.17;;;-1.40;67.00;;;;;;4648197;30;115807;-79
2023/01/28 09:25:47;;;;;;;39.00;17.25;;;-1.40;67.10;;;;;;4618860;30;117205;-79
2023/01/28 09:28:15;;;;;;;31.85;14.77;;;-1.40;67.10;;;;;;4650069;30;114702;-80
2023/01/28 09:30:42;;;;;;;32.05;17.10;;;-1.40;67.10;;;;;;4650250;30;114621;-79
2023/01/28 09:33:09;;;;;;;33.10;15.95;;;-1.40;66.90;;;;;;4648981;30;115686;-79
2023/01/28 09:35:37;;;;;;;33.85;14.95;;;-1.50;66.90;;;;;;4647852;30;114905;-79
2023/01/28 09:38:04;;;;;;;34.92;16.20;;;-1.50;67.10;;;;;;4649182;30;114782;-80
2023/01/28 09:40:42;;;;;;;30.88;15.98;;;-1.40;67.20;;;;;;4648372;30;115198;-80
2023/01/28 09:43:40;;;;;;;34.53;16.98;;;-1.40;67.00;;;;;;4647101;30;116473;-80
2023/01/28 09:46:11;;;;;;;33.22;16.80;;;-1.30;67.00;;;;;;4646227;30;114874;-79
2023/01/28 09:48:50;;;;;;;34.28;15.77;;;-1.30;67.10;;;;;;4635261;30;114912;-80
2023/01/28 09:51:38;;;;;;;36.90;16.70;;;-1.30;67.20;;;;;;4637350;30;114911;-79
2023/01/28 09:54:25;;;;;;;33.95;16.10;;;-1.20;67.20;;;;;;4650512;30;115759;-79
2023/01/28 09:57:04;;;;;;;38.75;17.13;;;-1.20;67.20;;;;;;4650565;30;114764;-79
2023/01/28 09:59:34;;;;;;;35.75;16.70;;;-1.10;67.10;;;;;;4637416;30;114574;-78
2023/01/28 10:02:26;;;;;;;37.80;17.60;;;-1.10;66.90;;;;;;4637377;30;114743;-78
2023/01/28 10:05:24;;;;;;;31.52;15.90;;;-1.20;66.90;;;;;;4650540;30;115891;-79
2023/01/28 10:08:49;;;;;;;35.53;15.85;;;-1.20;66.80;;;;;;4650661;30;116290;-79
2023/01/28 10:11:44;;;;;;;21.40;11.90;;;-1.20;66.70;;;;;;4649998;30;114719;-79
2023/01/28 10:14:16;;;;;;;35.95;16.63;;;-1.30;66.70;;;;;;4651454;30;114613;-79
2023/01/28 10:16:48;;;;;;;33.83;15.23;;;-1.40;66.90;;;;;;4650060;30;115206;-78
2023/01/28 10:19:27;;;;;;;31.17;15.35;;;-1.30;67.10;;;;;;4648553;30;114770;-79
2023/01/28 10:22:08;;;;;;;35.20;16.83;;;-1.30;67.10;;;;;;4651295;30;114646;-79
2023/01/28 10:24:40;;;;;;;30.33;15.30;;;-1.30;67.20;;;;;;4637284;30;114740;-79
2023/01/28 10:27:23;;;;;;;34.45;15.60;;;-1.30;67.00;;;;;;4635673;30;115634;-78
2023/01/28 10:29:50;;;;;;;31.75;14.90;;;-1.20;66.80;;;;;;4649418;30;115206;-78
2023/01/28 10:32:34;;;;;;;38.95;17.67;;;-1.30;66.90;;;;;;4651589;30;114793;-77
2023/01/28 10:35:02;;;;;;;30.20;15.95;;;-1.20;66.80;;;;;;4665665;30;115118;-77
2023/01/28 10:37:33;;;;;;;35.35;18.20;;;-1.30;66.80;;;;;;4639530;30;115419;-77
2023/01/28 10:40:02;;;;;;;31.73;16.40;;;-1.20;66.90;;;;;;4635529;30;115088;-78
2023/01/28 10:42:33;;;;;;;34.38;14.85;;;-1.30;66.70;;;;;;4622512;30;115921;-78
2023/01/28 10:45:20;;;;;;;29.55;12.35;;;-1.30;66.70;;;;;;4650578;30;117633;-78
2023/01/28 10:48:02;;;;;;;31.50;14.77;;;-1.30;66.60;;;;;;4635912;30;115286;-78
2023/01/28 10:50:30;;;;;;;31.00;15.55;;;-1.30;66.60;;;;;;4649401;30;115837;-78
2023/01/28 10:52:59;;;;;;;26.38;14.50;;;-1.30;66.40;;;;;;4651930;30;114652;-79
2023/01/28 10:55:44;;;;;;;33.22;16.00;;;-1.30;66.50;;;;;;4636900;30;114539;-79
2023/01/28 10:58:21;;;;;;;30.88;15.13;;;-1.40;66.60;;;;;;4650347;30;116276;-79
2023/01/28 11:00:58;;;;;;;34.60;16.83;;;-1.30;66.90;;;;;;4649059;30;115411;-80
2023/01/28 11:03:34;;;;;;;34.33;16.05;;;-1.20;66.70;;;;;;4642746;30;114616;-80
2023/01/28 11:06:01;;;;;;;33.47;15.55;;;-1.20;66.70;;;;;;4636431;30;114661;-80
2023/01/28 11:08:29;;;;;;;23.77;11.55;;;-1.10;66.70;;;;;;4653407;30;115321;-80
2023/01/28 11:10:57;;;;;;;35.53;15.48;;;-1.10;66.40;;;;;;4649904;30;115052;-80
2023/01/28 11:13:28;;;;;;;33.45;16.05;;;-1.10;66.40;;;;;;4636822;30;114467;-80
2023/01/28 11:15:55;;;;;;;28.48;13.00;;;-1.20;66.30;;;;;;4650810;30;114842;-79
2023/01/28 11:18:26;;;;;;;33.78;16.65;;;-1.20;66.50;;;;;;4635237;30;117747;-80
2023/01/28 11:20:59;;;;;;;33.67;14.80;;;-1.20;66.40;;;;;;4635020;30;115781;-80
2023/01/28 11:23:30;;;;;;;34.67;17.23;;;-1.10;66.40;;;;;;4651618;30;114853;-80
2023/01/28 11:26:15;;;;;;;36.70;16.35;;;-1.20;66.50;;;;;;4622438;30;114591;-80
2023/01/28 11:28:42;;;;;;;38.40;17.30;;;-1.10;66.50;;;;;;4635229;30;115350;-81
2023/01/28 11:31:15;;;;;;;34.85;15.75;;;-1.10;66.50;;;;;;4649677;30;114860;-80
2023/01/28 11:33:57;;;;;;;34.38;16.00;;;-1.10;66.60;;;;;;4635049;30;114654;-80
2023/01/28 11:36:30;;;;;;;38.60;17.25;;;-1.00;66.50;;;;;;4651215;30;114572;-79
2023/01/28 11:38:59;;;;;;;35.70;15.20;;;-1.00;66.60;;;;;;4635610;30;115201;-79
2023/01/28 11:41:34;;;;;;;39.33;18.67;;;-1.00;66.20;;;;;;4635341;30;115199;-80
2023/01/28 11:44:14;;;;;;;45.92;21.52;;;-1.00;66.30;;;;;;4635724;30;114729;-80
2023/01/28 11:47:24;;;;;;;30.83;15.15;;;-1.00;66.50;;;;;;4662988;30;114513;-79
2023/01/28 11:50:35;;;;;;;36.35;16.90;;;-0.90;66.40;;;;;;4650386;30;115196;-80
2023/01/28 11:53:22;;;;;;;33.95;16.05;;;-0.90;66.00;;;;;;4628683;30;114998;-80
2023/01/28 11:56:15;;;;;;;38.08;18.30;;;-0.90;66.10;;;;;;4648840;30;114685;-78
2023/01/28 11:59:10;;;;;;;26.40;12.02;;;-1.00;66.20;;;;;;4647076;30;116259;-78
2023/01/28 12:02:41;;;;;;;30.45;14.52;;;-1.00;66.00;;;;;;4647872;30;116389;-79
2023/01/28 12:05:26;;;;;;;35.22;17.45;;;-1.00;66.00;;;;;;4648850;30;116602;-79
2023/01/28 12:08:25;;;;;;;35.05;16.40;;;-1.10;66.00;;;;;;4647935;30;114977;-79
2023/01/28 12:11:13;;;;;;;32.80;15.23;;;-1.10;66.00;;;;;;4643240;30;114705;-79
2023/01/28 12:14:06;;;;;;;36.88;18.27;;;-1.10;65.90;;;;;;4646863;30;115603;-80
2023/01/28 12:16:57;;;;;;;36.42;15.98;;;-1.10;65.80;;;;;;4619025;30;115066;-80
2023/01/28 12:19:55;;;;;;;36.03;16.20;;;-1.10;66.00;;;;;;4649070;30;115099;-80
2023/01/28 12:22:51;;;;;;;27.15;13.23;;;-1.00;66.00;;;;;;4649357;30;114542;-80
2023/01/28 12:26:02;;;;;;;35.55;17.98;;;-0.90;66.00;;;;;;4633858;30;116458;-80
2023/01/28 12:28:43;;;;;;;34.60;16.10;;;-0.90;66.00;;;;;;4647526;30;116902;-79
2023/01/28 12:31:51;;;;;;;31.98;15.18;;;-0.90;66.10;;;;;;4634007;30;114608;-80
2023/01/28 12:35:06;;;;;;;27.35;12.65;;;-0.90;65.70;;;;;;4647753;30;114564;-78
2023/01/28 12:37:54;;;;;;;29.40;12.90;;;-1.00;65.70;;;;;;4631265;30;116474;-78
2023/01/28 12:40:27;;;;;;;27.90;13.85;;;-1.10;65.70;;;;;;4633640;30;117207;-79
2023/01/28 12:43:22;;;;;;;32.10;15.52;;;-1.20;65.70;;;;;;4662274;30;114703;-79
2023/01/28 12:46:03;;;;;;;31.17;14.65;;;-1.30;65.90;;;;;;4649500;30;114501;-78
2023/01/28 12:48:48;;;;;;;36.58;16.38;;;-1.30;66.20;;;;;;4633843;30;116051;-79
2023/01/28 12:51:22;;;;;;;35.78;17.40;;;-1.20;66.40;;;;;;4633404;30;114801;-79
2023/01/28 12:54:04;;;;;;;33.90;16.95;;;-1.20;66.50;;;;;;4631007;30;115130;-79
2023/01/28 12:56:39;;;;;;;29.30;14.65;;;-1.10;66.50;;;;;;4650052;30;114707;-80
2023/01/28 12:59:30;;;;;;;36.55;17.63;;;-1.00;66.30;;;;;;4617694;30;115421;-80
2023/01/28 13:02:12;;;;;;;35.28;16.42;;;-1.00;66.30;;;;;;4633221;30;114858;-79
2023/01/28 13:05:01;;;;;;;32.20;16.00;;;-1.00;66.30;;;;;;4647090;30;114573;-79
2023/01/28 13:07:55;;;;;;;32.10;16.40;;;-1.00;66.20;;;;;;4648766;30;114943;-79
2023/01/28 13:10:31;;;;;;;29.33;12.73;;;-1.10;66.10;;;;;;4642847;30;115902;-79
2023/01/28 13:12:59;;;;;;;35.08;15.82;;;-1.00;66.10;;;;;;4618889;30;115897;-79
2023/01/28 13:15:26;;;;;;;39.47;18.10;;;-1.00;66.20;;;;;;4634658;30;114954;-79
2023/01/28 13:17:57;;;;;;;39.08;18.02;;;-1.00;66.30;;;;;;4634701;30;114950;-78
2023/01/28 13:20:35;;;;;;;35.05;17.38;;;-1.00;66.30;;;;;;4647712;30;115288;-79
2023/01/28 13:23:19;;;;;;;27.58;12.98;;;-0.90;66.20;;;;;;4632973;30;115260;-79
2023/01/28 13:25:52;;;;;;;34.97;16.60;;;-0.90;65.90;;;;;;4634173;30;115761;-79
2023/01/28 13:28:28;;;;;;;32.47;15.90;;;-0.90;66.00;;;;;;4649311;30;114685;-79
2023/01/28 13:31:13;;;;;;;37.83;16.73;;;-0.90;66.00;;;;;;4631353;30;116197;-79